Time;durP1;ratioP1;P1;durP2;ratioP2;P2;SDS_P1;SDS_P2;PMS_P1;PMS_P2;Temp;Humidity;BMP_temperature;BMP_pressure;BME280_temperature;BME280_humidity;BME280_pressure;Samples;Min_cycle;Max_cycle;Signal;HPM_P1;HPM_P2
2022/03/28 00:02:00;;;;;;;13.60;11.67;;;;;;;;;;5068062;28;24468;-53
2022/03/28 00:04:25;;;;;;;14.97;11.63;;;;;;;;;;5079004;28;24425;-54
2022/03/28 00:06:50;;;;;;;13.40;11.77;;;;;;;;;;5072600;28;24999;-53
2022/03/28 00:09:16;;;;;;;12.73;11.33;;;;;;;;;;5065387;28;24414;-53
2022/03/28 00:11:41;;;;;;;12.43;10.97;;;;;;;;;;5078438;28;24518;-52
2022/03/28 00:14:06;;;;;;;12.45;11.13;;;;;;;;;;5075642;28;25050;-52
2022/03/28 00:16:32;;;;;;;13.00;11.60;;;;;;;;;;5071025;28;24431;-53
2022/03/28 00:18:57;;;;;;;11.70;10.43;;;;;;;;;;5068830;28;24443;-53
2022/03/28 00:21:22;;;;;;;12.93;11.53;;;;;;;;;;5067590;28;24465;-52
2022/03/28 00:23:47;;;;;;;11.03;9.93;;;;;;;;;;5077430;28;24419;-53
2022/03/28 00:26:13;;;;;;;12.60;10.60;;;;;;;;;;5072079;28;24448;-53
2022/03/28 00:28:38;;;;;;;14.07;11.13;;;;;;;;;;5073910;28;24445;-53
2022/03/28 00:31:03;;;;;;;11.85;10.65;;;;;;;;;;5082598;28;24562;-53
2022/03/28 00:33:29;;;;;;;14.03;10.90;;;;;;;;;;5076595;28;24962;-53
2022/03/28 00:35:54;;;;;;;12.27;10.97;;;;;;;;;;5079763;28;24415;-52
2022/03/28 00:38:19;;;;;;;11.53;10.27;;;;;;;;;;5084801;28;24407;-53
2022/03/28 00:40:44;;;;;;;11.50;10.30;;;;;;;;;;5070768;28;24418;-52
2022/03/28 00:43:10;;;;;;;11.77;10.53;;;;;;;;;;5070485;28;24539;-53
2022/03/28 00:45:36;;;;;;;12.90;10.90;;;;;;;;;;5064448;28;24981;-52
2022/03/28 00:48:02;;;;;;;14.75;10.63;;;;;;;;;;5065556;28;24444;-52
2022/03/28 00:50:28;;;;;;;12.18;10.65;;;;;;;;;;5071006;28;24418;-52
2022/03/28 00:52:53;;;;;;;12.48;10.88;;;;;;;;;;5073151;28;24793;-52
2022/03/28 00:55:18;;;;;;;11.23;10.00;;;;;;;;;;5067266;28;24464;-53
2022/03/28 00:57:44;;;;;;;12.17;10.73;;;;;;;;;;5076534;28;24426;-52
2022/03/28 01:00:09;;;;;;;12.27;10.33;;;;;;;;;;5065842;28;24430;-53
2022/03/28 01:02:35;;;;;;;12.55;10.70;;;;;;;;;;5080313;28;24423;-53
2022/03/28 01:05:00;;;;;;;13.27;11.03;;;;;;;;;;5069192;28;24468;-53
2022/03/28 01:07:26;;;;;;;11.23;9.93;;;;;;;;;;5065553;28;24423;-52
2022/03/28 01:09:51;;;;;;;11.23;10.13;;;;;;;;;;5065769;28;24423;-53
2022/03/28 01:12:16;;;;;;;12.87;10.30;;;;;;;;;;5076825;28;25068;-52
2022/03/28 01:14:41;;;;;;;11.67;10.37;;;;;;;;;;5075487;28;24530;-52
2022/03/28 01:19:51;;;;;;;13.07;10.27;;;;;;;;;;5078068;28;24461;-53
2022/03/28 01:22:16;;;;;;;12.25;10.00;;;;;;;;;;5080765;28;24414;-53
2022/03/28 01:24:42;;;;;;;11.15;9.85;;;;;;;;;;5075227;28;24418;-53
2022/03/28 01:27:07;;;;;;;11.33;10.07;;;;;;;;;;5063923;28;24549;-53
2022/03/28 01:29:32;;;;;;;11.63;10.20;;;;;;;;;;5064284;28;24506;-53
2022/03/28 01:31:57;;;;;;;10.70;9.60;;;;;;;;;;5075158;28;24847;-53
2022/03/28 01:34:23;;;;;;;11.70;10.20;;;;;;;;;;5071949;28;24446;-53
2022/03/28 01:36:48;;;;;;;10.52;9.43;;;;;;;;;;5065611;28;24445;-53
2022/03/28 01:39:14;;;;;;;11.57;10.30;;;;;;;;;;5074872;28;24439;-53
2022/03/28 01:41:39;;;;;;;11.10;9.77;;;;;;;;;;5067651;28;24438;-53
2022/03/28 01:44:05;;;;;;;11.50;10.30;;;;;;;;;;5071948;28;24427;-53
2022/03/28 01:46:30;;;;;;;11.98;10.48;;;;;;;;;;5075368;28;24494;-53
2022/03/28 01:48:55;;;;;;;11.60;10.40;;;;;;;;;;5068063;28;24774;-53
2022/03/28 01:51:20;;;;;;;11.02;9.90;;;;;;;;;;5070450;28;24517;-53
2022/03/28 01:53:45;;;;;;;11.88;10.10;;;;;;;;;;5078293;28;24971;-53
2022/03/28 01:56:11;;;;;;;11.13;10.00;;;;;;;;;;5070751;28;24542;-53
2022/03/28 01:58:36;;;;;;;12.02;9.52;;;;;;;;;;5074059;28;24446;-53
2022/03/28 02:01:01;;;;;;;10.70;9.60;;;;;;;;;;5070543;28;24773;-53
2022/03/28 02:03:26;;;;;;;11.07;9.63;;;;;;;;;;5074804;28;24508;-54
2022/03/28 02:05:51;;;;;;;11.67;9.83;;;;;;;;;;5075908;28;24443;-53
2022/03/28 02:08:16;;;;;;;11.02;9.40;;;;;;;;;;5087739;28;24430;-52
2022/03/28 02:10:42;;;;;;;11.02;9.82;;;;;;;;;;5078412;28;24915;-54
2022/03/28 02:13:07;;;;;;;11.20;9.87;;;;;;;;;;5073576;28;24928;-52
2022/03/28 02:15:32;;;;;;;10.63;9.52;;;;;;;;;;5071388;28;24968;-52
2022/03/28 02:17:58;;;;;;;11.60;9.50;;;;;;;;;;5071430;28;24957;-52
2022/03/28 02:20:23;;;;;;;11.88;9.93;;;;;;;;;;5085374;28;24822;-52
2022/03/28 02:22:48;;;;;;;11.23;9.60;;;;;;;;;;5086772;28;24411;-52
2022/03/28 02:25:15;;;;;;;10.82;9.68;;;;;;;;;;5080240;28;24437;-52
2022/03/28 02:27:40;;;;;;;11.95;10.65;;;;;;;;;;5081394;28;24500;-53
2022/03/28 02:30:07;;;;;;;10.87;9.77;;;;;;;;;;5082535;28;24406;-53
2022/03/28 02:32:32;;;;;;;10.35;9.35;;;;;;;;;;5084843;28;24818;-53
2022/03/28 02:34:57;;;;;;;10.27;9.17;;;;;;;;;;5074220;28;24436;-52
2022/03/28 02:37:23;;;;;;;10.88;9.40;;;;;;;;;;5078992;28;24410;-53
2022/03/28 02:39:48;;;;;;;11.10;10.00;;;;;;;;;;5074137;28;24426;-53
2022/03/28 02:42:14;;;;;;;12.88;10.52;;;;;;;;;;5077316;28;24410;-53
2022/03/28 02:44:39;;;;;;;11.38;9.63;;;;;;;;;;5084112;28;24423;-53
2022/03/28 02:47:05;;;;;;;10.70;9.33;;;;;;;;;;5072111;28;25084;-53
2022/03/28 02:49:30;;;;;;;10.60;9.50;;;;;;;;;;5070392;28;24509;-53
2022/03/28 02:51:55;;;;;;;10.57;9.48;;;;;;;;;;5072625;28;24426;-55
2022/03/28 02:54:20;;;;;;;10.67;9.50;;;;;;;;;;5080312;28;24438;-52
2022/03/28 02:56:45;;;;;;;10.93;9.60;;;;;;;;;;5076196;28;24421;-53
2022/03/28 02:59:12;;;;;;;12.10;9.70;;;;;;;;;;5073315;28;24917;-53
2022/03/28 03:01:37;;;;;;;12.33;9.87;;;;;;;;;;5073352;28;24442;-53
2022/03/28 03:04:02;;;;;;;10.73;9.48;;;;;;;;;;5072986;28;24460;-53
2022/03/28 03:06:27;;;;;;;10.90;8.90;;;;;;;;;;5077858;28;24453;-53
2022/03/28 03:08:52;;;;;;;10.60;9.50;;;;;;;;;;5079677;28;24479;-53
2022/03/28 03:11:18;;;;;;;10.10;9.10;;;;;;;;;;5083268;28;24475;-56
2022/03/28 03:13:43;;;;;;;11.43;9.87;;;;;;;;;;5073484;28;24422;-52
2022/03/28 03:16:08;;;;;;;10.77;9.40;;;;;;;;;;5074140;28;24407;-53
2022/03/28 03:18:34;;;;;;;10.73;9.40;;;;;;;;;;5082262;28;24411;-53
2022/03/28 03:20:59;;;;;;;11.73;9.63;;;;;;;;;;5070660;28;25225;-52
2022/03/28 03:23:24;;;;;;;11.00;9.75;;;;;;;;;;5072021;28;24414;-52
2022/03/28 03:25:50;;;;;;;10.70;9.57;;;;;;;;;;5082535;28;24447;-51
2022/03/28 03:28:16;;;;;;;11.57;9.23;;;;;;;;;;5078356;28;24461;-53
2022/03/28 03:30:41;;;;;;;11.02;9.75;;;;;;;;;;5073741;28;24425;-53
2022/03/28 03:33:07;;;;;;;11.35;9.30;;;;;;;;;;5074344;28;24457;-53
2022/03/28 03:35:32;;;;;;;11.07;9.68;;;;;;;;;;5084075;28;24419;-53
2022/03/28 03:37:57;;;;;;;9.80;8.80;;;;;;;;;;5066415;28;24427;-54
2022/03/28 03:40:22;;;;;;;11.10;9.38;;;;;;;;;;5079088;28;24493;-54
2022/03/28 03:42:47;;;;;;;10.80;9.70;;;;;;;;;;5081514;28;24417;-53
2022/03/28 03:45:14;;;;;;;11.07;9.93;;;;;;;;;;5087014;28;24417;-53
2022/03/28 03:47:39;;;;;;;12.00;10.70;;;;;;;;;;5073376;28;24402;-53
2022/03/28 03:50:05;;;;;;;10.57;9.47;;;;;;;;;;5093543;28;24579;-53
2022/03/28 03:52:30;;;;;;;10.85;9.75;;;;;;;;;;5077865;28;24402;-53
2022/03/28 03:54:55;;;;;;;10.90;9.80;;;;;;;;;;5087008;28;24983;-54
2022/03/28 03:57:21;;;;;;;11.45;9.63;;;;;;;;;;5085233;28;24898;-53
2022/03/28 03:59:46;;;;;;;10.85;9.40;;;;;;;;;;5086729;28;24425;-52
2022/03/28 04:02:11;;;;;;;13.03;9.90;;;;;;;;;;5073140;28;24807;-53
2022/03/28 04:04:36;;;;;;;10.67;9.57;;;;;;;;;;5078086;28;24827;-52
2022/03/28 04:07:01;;;;;;;11.18;9.80;;;;;;;;;;5076696;28;24974;-53
2022/03/28 04:09:26;;;;;;;11.33;10.13;;;;;;;;;;5078382;28;24426;-52
2022/03/28 04:11:52;;;;;;;13.57;10.53;;;;;;;;;;5065175;28;24812;-53
2022/03/28 04:14:17;;;;;;;11.00;9.70;;;;;;;;;;5076195;28;24422;-53
2022/03/28 04:16:42;;;;;;;11.00;9.80;;;;;;;;;;5074288;28;24987;-53
2022/03/28 04:19:08;;;;;;;11.88;9.55;;;;;;;;;;5069679;28;24449;-53
2022/03/28 04:21:33;;;;;;;11.65;9.65;;;;;;;;;;5076415;28;24414;-53
2022/03/28 04:23:59;;;;;;;10.57;9.47;;;;;;;;;;5075424;28;24426;-53
2022/03/28 04:26:24;;;;;;;11.35;9.57;;;;;;;;;;5074913;28;24446;-53
2022/03/28 04:28:49;;;;;;;11.00;9.83;;;;;;;;;;5074970;28;24820;-53
2022/03/28 04:31:15;;;;;;;11.27;10.07;;;;;;;;;;5069362;28;24497;-53
2022/03/28 04:33:40;;;;;;;13.45;9.85;;;;;;;;;;5070517;28;24431;-54
2022/03/28 04:36:05;;;;;;;10.50;9.40;;;;;;;;;;5069824;28;24444;-54
2022/03/28 04:38:30;;;;;;;12.63;10.40;;;;;;;;;;5064712;28;24892;-54
2022/03/28 04:40:56;;;;;;;11.90;10.13;;;;;;;;;;5061628;28;24932;-54
2022/03/28 04:43:21;;;;;;;10.50;9.40;;;;;;;;;;5064299;28;24434;-54
2022/03/28 04:45:46;;;;;;;11.70;10.03;;;;;;;;;;5069033;28;25009;-54
2022/03/28 04:48:12;;;;;;;13.60;9.60;;;;;;;;;;5062226;28;25330;-54
2022/03/28 04:50:37;;;;;;;11.07;9.67;;;;;;;;;;5067481;28;24509;-53
2022/03/28 04:53:02;;;;;;;12.40;10.20;;;;;;;;;;5068184;28;24434;-54
2022/03/28 04:55:28;;;;;;;11.40;9.97;;;;;;;;;;5077559;28;24801;-54
2022/03/28 04:57:53;;;;;;;12.87;9.80;;;;;;;;;;5074180;28;24426;-53
2022/03/28 05:00:18;;;;;;;13.40;10.40;;;;;;;;;;5071049;28;24418;-53
2022/03/28 05:02:44;;;;;;;13.30;10.60;;;;;;;;;;5075780;28;24414;-53
2022/03/28 05:05:09;;;;;;;15.73;10.73;;;;;;;;;;5062383;28;25298;-53
2022/03/28 05:07:37;;;;;;;11.47;9.50;;;;;;;;;;5068528;28;24455;-54
2022/03/28 05:10:03;;;;;;;13.63;10.20;;;;;;;;;;5079646;28;24459;-54
2022/03/28 05:12:28;;;;;;;11.45;9.95;;;;;;;;;;5063918;28;24411;-54
2022/03/28 05:14:54;;;;;;;13.90;10.07;;;;;;;;;;5068459;28;24473;-54
2022/03/28 05:17:26;;;;;;;12.73;9.67;;;;;;;;;;5072902;28;24422;-54
2022/03/28 05:19:52;;;;;;;11.43;9.90;;;;;;;;;;5075245;28;24488;-53
2022/03/28 05:22:17;;;;;;;14.27;10.57;;;;;;;;;;5071203;28;24475;-53
2022/03/28 05:24:42;;;;;;;13.67;10.37;;;;;;;;;;5067325;28;24434;-53
2022/03/28 05:27:08;;;;;;;12.10;10.00;;;;;;;;;;5075371;28;24453;-53
2022/03/28 05:29:33;;;;;;;15.10;10.67;;;;;;;;;;5073725;28;24430;-53
2022/03/28 05:31:58;;;;;;;13.37;10.73;;;;;;;;;;5085690;28;24477;-53
2022/03/28 05:34:23;;;;;;;12.90;10.90;;;;;;;;;;5087983;28;25182;-54
2022/03/28 05:36:48;;;;;;;12.83;10.33;;;;;;;;;;5087026;28;24417;-54
2022/03/28 05:39:14;;;;;;;12.13;10.10;;;;;;;;;;5089739;28;24403;-53
2022/03/28 05:41:39;;;;;;;12.33;9.97;;;;;;;;;;5089662;28;24436;-53
2022/03/28 05:44:04;;;;;;;14.73;10.80;;;;;;;;;;5089401;28;24398;-54
2022/03/28 05:46:29;;;;;;;10.90;9.70;;;;;;;;;;5087747;28;24500;-53
2022/03/28 05:48:55;;;;;;;13.77;10.70;;;;;;;;;;5083283;28;25260;-54
2022/03/28 05:51:20;;;;;;;12.20;10.07;;;;;;;;;;5069188;28;24419;-53
2022/03/28 05:53:45;;;;;;;12.50;10.10;;;;;;;;;;5069258;28;24437;-54
2022/03/28 05:56:10;;;;;;;12.07;9.70;;;;;;;;;;5069639;28;24949;-53
2022/03/28 05:58:36;;;;;;;11.05;9.63;;;;;;;;;;5075620;28;24424;-54
2022/03/28 06:01:01;;;;;;;12.73;10.40;;;;;;;;;;5077112;28;24452;-53
2022/03/28 06:03:26;;;;;;;12.10;9.83;;;;;;;;;;5070470;28;24863;-54
2022/03/28 06:05:52;;;;;;;11.70;9.95;;;;;;;;;;5069369;28;24456;-53
2022/03/28 06:08:17;;;;;;;11.80;10.10;;;;;;;;;;5068989;28;25060;-53
2022/03/28 06:10:42;;;;;;;14.17;10.67;;;;;;;;;;5069189;28;24486;-53
2022/03/28 06:13:08;;;;;;;11.45;10.05;;;;;;;;;;5068495;28;24418;-53
2022/03/28 06:15:36;;;;;;;10.80;9.80;;;;;;;;;;5081378;28;24433;-53
2022/03/28 06:18:03;;;;;;;13.83;10.60;;;;;;;;;;5070195;28;24426;-52
2022/03/28 06:20:28;;;;;;;12.20;9.87;;;;;;;;;;5068794;28;24438;-53
2022/03/28 06:22:53;;;;;;;12.00;10.33;;;;;;;;;;5074437;28;24533;-52
2022/03/28 06:25:19;;;;;;;13.10;11.47;;;;;;;;;;5084455;28;24843;-53
2022/03/28 06:27:44;;;;;;;12.40;10.63;;;;;;;;;;5086780;28;24588;-53
2022/03/28 06:30:11;;;;;;;11.63;10.43;;;;;;;;;;5087338;28;24780;-52
2022/03/28 06:32:36;;;;;;;12.10;10.75;;;;;;;;;;5072187;28;24926;-53
2022/03/28 06:35:02;;;;;;;12.90;11.60;;;;;;;;;;5086836;28;24976;-54
2022/03/28 06:37:27;;;;;;;13.77;11.40;;;;;;;;;;5086196;28;24495;-53
2022/03/28 06:39:52;;;;;;;12.70;10.73;;;;;;;;;;5077456;28;25000;-53
2022/03/28 06:42:17;;;;;;;12.15;10.82;;;;;;;;;;5072992;28;24407;-52
2022/03/28 06:44:43;;;;;;;12.57;10.70;;;;;;;;;;5072482;28;24764;-52
2022/03/28 06:47:08;;;;;;;12.52;11.23;;;;;;;;;;5068611;28;24437;-52
2022/03/28 06:49:34;;;;;;;12.67;10.50;;;;;;;;;;5076962;28;24418;-52
2022/03/28 06:51:59;;;;;;;12.13;10.83;;;;;;;;;;5067888;28;24514;-52
2022/03/28 06:54:24;;;;;;;13.75;12.10;;;;;;;;;;5067921;28;24429;-52
2022/03/28 06:56:49;;;;;;;12.63;10.57;;;;;;;;;;5068049;28;24391;-52
2022/03/28 06:59:14;;;;;;;15.20;11.20;;;;;;;;;;5067587;28;24387;-53
2022/03/28 07:01:41;;;;;;;12.10;10.83;;;;;;;;;;5068150;28;24746;-52
2022/03/28 07:04:06;;;;;;;12.83;10.80;;;;;;;;;;5085311;28;24763;-52
2022/03/28 07:06:32;;;;;;;12.03;10.73;;;;;;;;;;5086677;28;24443;-52
2022/03/28 07:08:57;;;;;;;12.53;11.23;;;;;;;;;;5087473;28;24988;-52
2022/03/28 07:11:22;;;;;;;12.53;11.23;;;;;;;;;;5088222;28;25001;-52
2022/03/28 07:13:47;;;;;;;13.03;11.13;;;;;;;;;;5075714;28;25195;-52
2022/03/28 07:16:13;;;;;;;11.73;10.52;;;;;;;;;;5067668;28;24402;-52
2022/03/28 07:18:38;;;;;;;13.50;11.07;;;;;;;;;;5065844;28;24405;-52
2022/03/28 07:21:03;;;;;;;13.03;10.73;;;;;;;;;;5067733;28;24772;-52
2022/03/28 07:23:28;;;;;;;12.57;11.27;;;;;;;;;;5067430;28;24506;-52
2022/03/28 07:25:56;;;;;;;13.43;11.23;;;;;;;;;;5068417;28;24397;-52
2022/03/28 07:28:21;;;;;;;13.57;11.55;;;;;;;;;;5079011;28;24442;-53
2022/03/28 07:30:46;;;;;;;12.37;11.07;;;;;;;;;;5073687;28;24524;-51
2022/03/28 07:33:12;;;;;;;12.40;11.13;;;;;;;;;;5079544;28;24461;-52
2022/03/28 07:35:37;;;;;;;12.70;11.10;;;;;;;;;;5065474;28;24406;-52
2022/03/28 07:38:06;;;;;;;12.00;10.70;;;;;;;;;;5064424;28;25049;-52
2022/03/28 07:40:31;;;;;;;13.32;11.10;;;;;;;;;;5065106;28;24766;-52
2022/03/28 07:42:56;;;;;;;13.37;11.87;;;;;;;;;;5066358;28;24430;-56
2022/03/28 07:45:23;;;;;;;13.20;11.80;;;;;;;;;;5065050;28;25093;-52
2022/03/28 07:47:48;;;;;;;12.50;11.20;;;;;;;;;;5067120;28;24451;-52
2022/03/28 07:50:14;;;;;;;16.23;13.80;;;;;;;;;;5067368;28;24394;-52
2022/03/28 07:52:39;;;;;;;14.02;12.52;;;;;;;;;;5084293;28;24451;-53
2022/03/28 07:55:05;;;;;;;14.40;12.20;;;;;;;;;;5086970;28;24494;-53
2022/03/28 07:57:31;;;;;;;14.23;11.68;;;;;;;;;;5086102;28;24389;-52
2022/03/28 07:59:56;;;;;;;13.80;12.40;;;;;;;;;;5086644;28;24406;-52
2022/03/28 08:02:23;;;;;;;13.50;12.10;;;;;;;;;;5085290;28;24410;-52
2022/03/28 08:04:48;;;;;;;13.35;11.70;;;;;;;;;;5087057;28;24956;-53
2022/03/28 08:07:13;;;;;;;13.10;11.50;;;;;;;;;;5086933;28;24409;-53
2022/03/28 08:09:39;;;;;;;13.65;12.25;;;;;;;;;;5085380;28;24754;-52
2022/03/28 08:12:05;;;;;;;12.90;11.60;;;;;;;;;;5084817;28;24440;-52
2022/03/28 08:14:30;;;;;;;14.40;12.20;;;;;;;;;;5086802;28;24958;-52
2022/03/28 08:16:56;;;;;;;14.80;13.30;;;;;;;;;;5086575;28;24386;-52
2022/03/28 08:19:21;;;;;;;14.17;12.67;;;;;;;;;;5086555;28;24482;-53
2022/03/28 08:21:46;;;;;;;14.60;12.77;;;;;;;;;;5086717;28;24417;-52
2022/03/28 08:24:12;;;;;;;14.40;12.90;;;;;;;;;;5084871;28;24428;-52
2022/03/28 08:26:37;;;;;;;15.97;14.30;;;;;;;;;;5086723;28;24406;-52
2022/03/28 08:29:03;;;;;;;15.17;13.03;;;;;;;;;;5086292;28;24567;-53
2022/03/28 08:31:29;;;;;;;14.90;13.45;;;;;;;;;;5086871;28;24395;-52
2022/03/28 08:33:54;;;;;;;13.30;12.00;;;;;;;;;;5080421;28;24429;-53
2022/03/28 08:36:19;;;;;;;13.20;11.90;;;;;;;;;;5066411;28;24753;-52
2022/03/28 08:38:44;;;;;;;14.70;13.20;;;;;;;;;;5066232;28;24472;-51
2022/03/28 08:41:14;;;;;;;15.10;13.40;;;;;;;;;;5066364;28;24820;-52
2022/03/28 08:43:39;;;;;;;16.13;14.43;;;;;;;;;;5066070;28;24395;-53
2022/03/28 08:46:05;;;;;;;14.27;12.87;;;;;;;;;;5066126;28;24974;-52
2022/03/28 08:48:33;;;;;;;14.50;13.00;;;;;;;;;;5066711;28;24928;-52
2022/03/28 08:50:58;;;;;;;14.68;12.15;;;;;;;;;;5065918;28;24391;-52
2022/03/28 08:53:23;;;;;;;13.03;11.73;;;;;;;;;;5066231;28;24410;-52
2022/03/28 08:55:48;;;;;;;17.37;12.73;;;;;;;;;;5065958;28;24959;-52
2022/03/28 08:58:14;;;;;;;15.33;13.30;;;;;;;;;;5065754;28;24395;-53
2022/03/28 09:00:39;;;;;;;14.90;13.40;;;;;;;;;;5066069;28;24406;-53
2022/03/28 09:03:05;;;;;;;15.90;13.68;;;;;;;;;;5065942;28;24474;-52
2022/03/28 09:05:31;;;;;;;16.02;14.32;;;;;;;;;;5073180;28;24988;-52
2022/03/28 09:07:58;;;;;;;15.10;13.60;;;;;;;;;;5087589;28;24481;-53
2022/03/28 09:10:23;;;;;;;16.50;14.77;;;;;;;;;;5090376;28;24540;-52
2022/03/28 09:13:01;;;;;;;15.33;13.73;;;;;;;;;;5090674;28;24816;-52
2022/03/28 09:15:40;;;;;;;37.38;19.08;;;;;;;;;;5086410;28;24415;-53
2022/03/28 09:18:05;;;;;;;21.33;17.55;;;;;;;;;;5069890;28;24379;-53
2022/03/28 09:20:30;;;;;;;16.93;15.23;;;;;;;;;;5070028;28;24394;-52
2022/03/28 09:22:55;;;;;;;20.30;16.40;;;;;;;;;;5069948;28;24397;-52
2022/03/28 09:25:20;;;;;;;28.73;19.35;;;;;;;;;;5087739;28;24533;-53
2022/03/28 09:27:47;;;;;;;20.83;18.63;;;;;;;;;;5069815;28;24514;-52
2022/03/28 09:30:14;;;;;;;20.10;18.10;;;;;;;;;;5069521;28;24409;-52
2022/03/28 09:32:40;;;;;;;19.27;17.27;;;;;;;;;;5069777;28;24394;-53
2022/03/28 09:35:25;;;;;;;19.58;17.67;;;;;;;;;;5069068;28;24502;-53
2022/03/28 09:38:20;;;;;;;19.20;17.30;;;;;;;;;;5085506;28;25234;-53
2022/03/28 09:40:49;;;;;;;33.47;19.60;;;;;;;;;;5080617;28;24513;-53
2022/03/28 09:43:14;;;;;;;21.05;18.85;;;;;;;;;;5086997;28;24421;-53
2022/03/28 09:45:39;;;;;;;18.85;16.95;;;;;;;;;;5089364;28;24447;-53
2022/03/28 09:48:06;;;;;;;18.55;16.75;;;;;;;;;;5079505;28;24855;-52
2022/03/28 09:50:42;;;;;;;18.70;16.48;;;;;;;;;;5087007;28;24677;-52
2022/03/28 09:53:12;;;;;;;33.92;21.17;;;;;;;;;;5078914;28;24517;-53
2022/03/28 09:55:44;;;;;;;20.85;18.75;;;;;;;;;;5069089;28;24399;-51
2022/03/28 09:58:09;;;;;;;20.70;18.70;;;;;;;;;;5068000;28;24430;-52
2022/03/28 10:00:34;;;;;;;22.15;18.10;;;;;;;;;;5065422;28;24909;-55
2022/03/28 10:03:05;;;;;;;22.73;17.93;;;;;;;;;;5067022;28;24484;-52
2022/03/28 10:05:30;;;;;;;19.80;17.70;;;;;;;;;;5066870;28;24418;-52
2022/03/28 10:07:57;;;;;;;22.37;18.87;;;;;;;;;;5073172;28;24433;-52
2022/03/28 10:10:22;;;;;;;18.52;16.63;;;;;;;;;;5085250;28;24398;-52
2022/03/28 10:12:47;;;;;;;20.90;17.80;;;;;;;;;;5080542;28;24714;-52
2022/03/28 10:15:13;;;;;;;18.60;16.70;;;;;;;;;;5065252;28;24502;-52
2022/03/28 10:17:39;;;;;;;17.50;15.70;;;;;;;;;;5068713;28;24398;-53
2022/03/28 10:20:05;;;;;;;19.45;17.45;;;;;;;;;;5084555;28;24587;-53
2022/03/28 10:22:35;;;;;;;69.13;24.10;;;;;;;;;;5081887;28;25262;-53
2022/03/28 10:25:05;;;;;;;22.13;19.70;;;;;;;;;;5085866;28;24539;-51
2022/03/28 10:27:32;;;;;;;21.33;19.13;;;;;;;;;;5074223;28;24443;-51
2022/03/28 10:30:09;;;;;;;44.20;23.55;;;;;;;;;;5077488;28;24422;-51
2022/03/28 10:32:36;;;;;;;20.07;17.90;;;;;;;;;;5072654;28;24435;-51
2022/03/28 10:35:04;;;;;;;22.52;19.20;;;;;;;;;;5068492;28;24411;-55
2022/03/28 10:37:37;;;;;;;20.40;17.65;;;;;;;;;;5068041;28;24502;-52
2022/03/28 10:40:11;;;;;;;21.98;18.80;;;;;;;;;;5075580;28;24417;-52
2022/03/28 10:42:37;;;;;;;22.17;19.27;;;;;;;;;;5070857;28;24572;-51
2022/03/28 10:45:04;;;;;;;40.30;22.20;;;;;;;;;;5067862;28;24969;-53
2022/03/28 10:47:49;;;;;;;29.23;18.48;;;;;;;;;;5070114;28;25083;-52
2022/03/28 10:50:17;;;;;;;21.55;18.88;;;;;;;;;;5073948;28;24533;-51
2022/03/28 10:53:08;;;;;;;19.47;17.57;;;;;;;;;;5068104;28;24410;-53
2022/03/28 10:55:50;;;;;;;18.58;16.65;;;;;;;;;;5065798;28;24506;-52
2022/03/28 10:58:25;;;;;;;17.53;15.87;;;;;;;;;;5067997;28;24481;-53
2022/03/28 11:01:09;;;;;;;18.27;16.48;;;;;;;;;;5071765;28;24421;-52
2022/03/28 11:03:53;;;;;;;14.25;12.85;;;;;;;;;;5088419;28;24421;-52
2022/03/28 11:06:19;;;;;;;25.92;13.82;;;;;;;;;;5087854;28;24386;-52
2022/03/28 11:08:56;;;;;;;12.23;11.02;;;;;;;;;;5088225;28;24397;-52
2022/03/28 11:11:22;;;;;;;11.88;10.68;;;;;;;;;;5085617;28;24457;-53
2022/03/28 11:14:00;;;;;;;28.08;14.98;;;;;;;;;;5087934;28;24414;-52
2022/03/28 11:16:45;;;;;;;15.07;12.83;;;;;;;;;;5088020;28;24467;-52
2022/03/28 11:19:28;;;;;;;20.97;13.83;;;;;;;;;;5087692;28;24403;-53
2022/03/28 11:22:05;;;;;;;45.00;18.05;;;;;;;;;;5083433;28;24518;-52
2022/03/28 11:24:51;;;;;;;27.08;15.40;;;;;;;;;;5067329;28;24402;-52
2022/03/28 11:27:17;;;;;;;13.70;12.30;;;;;;;;;;5067360;28;24395;-52
2022/03/28 11:29:43;;;;;;;13.13;11.83;;;;;;;;;;5067597;28;24409;-51
2022/03/28 11:32:09;;;;;;;21.17;14.07;;;;;;;;;;5083940;28;24437;-52
2022/03/28 11:34:34;;;;;;;14.85;11.38;;;;;;;;;;5086845;28;24984;-52
2022/03/28 11:37:01;;;;;;;13.30;11.90;;;;;;;;;;5086670;28;21433;-52
2022/03/28 11:39:27;;;;;;;13.87;12.50;;;;;;;;;;5087551;28;24401;-52
2022/03/28 11:41:53;;;;;;;13.52;12.30;;;;;;;;;;5085320;28;24974;-53
2022/03/28 11:44:18;;;;;;;11.40;10.40;;;;;;;;;;5087090;28;24394;-53
2022/03/28 11:46:52;;;;;;;22.58;13.10;;;;;;;;;;5087075;28;24435;-52
2022/03/28 11:49:17;;;;;;;18.13;13.05;;;;;;;;;;5086927;28;24939;-52
2022/03/28 11:51:44;;;;;;;26.67;13.45;;;;;;;;;;5084905;28;24446;-52
2022/03/28 11:54:11;;;;;;;15.07;11.70;;;;;;;;;;5087457;28;25136;-52
2022/03/28 11:59:22;;;;;;;15.90;10.85;;;;;;;;;;5087295;28;25021;-52
2022/03/28 12:01:49;;;;;;;11.03;10.03;;;;;;;;;;5083325;28;24395;-52
2022/03/28 12:04:17;;;;;;;11.80;10.70;;;;;;;;;;5086358;28;24448;-52
2022/03/28 12:06:43;;;;;;;24.80;14.05;;;;;;;;;;5087185;28;24390;-53
2022/03/28 12:09:08;;;;;;;12.50;11.20;;;;;;;;;;5087315;28;24474;-51
2022/03/28 12:11:37;;;;;;;11.90;10.70;;;;;;;;;;5086051;28;24403;-51
2022/03/28 12:14:02;;;;;;;14.45;12.00;;;;;;;;;;5078189;28;25005;-52
2022/03/28 12:16:27;;;;;;;12.10;10.90;;;;;;;;;;5085723;28;24433;-52
2022/03/28 12:18:53;;;;;;;12.53;11.33;;;;;;;;;;5086731;28;24422;-52
2022/03/28 12:21:19;;;;;;;11.55;10.13;;;;;;;;;;5084743;28;25025;-52
2022/03/28 12:23:44;;;;;;;13.05;11.75;;;;;;;;;;5084592;28;24514;-52
2022/03/28 12:26:11;;;;;;;12.63;11.43;;;;;;;;;;5086870;28;24999;-52
2022/03/28 12:28:38;;;;;;;13.75;12.25;;;;;;;;;;5086354;28;24517;-52
2022/03/28 12:31:04;;;;;;;12.73;11.52;;;;;;;;;;5086988;28;24457;-52
2022/03/28 12:33:30;;;;;;;14.93;13.52;;;;;;;;;;5084532;28;24437;-52
2022/03/28 12:36:03;;;;;;;15.30;13.70;;;;;;;;;;5086808;28;24962;-53
2022/03/28 12:38:32;;;;;;;14.18;12.77;;;;;;;;;;5086466;28;24940;-52
2022/03/28 12:41:03;;;;;;;15.20;13.60;;;;;;;;;;5086101;28;24477;-52
2022/03/28 12:43:29;;;;;;;16.58;13.48;;;;;;;;;;5085618;28;24393;-52
2022/03/28 12:45:55;;;;;;;15.60;14.00;;;;;;;;;;5082943;28;24457;-51
2022/03/28 12:48:21;;;;;;;13.40;12.10;;;;;;;;;;5084535;28;24863;-51
2022/03/28 12:50:57;;;;;;;26.40;15.40;;;;;;;;;;5083513;28;24539;-52
2022/03/28 12:53:24;;;;;;;21.08;15.98;;;;;;;;;;5062910;28;24421;-52
2022/03/28 12:55:49;;;;;;;27.48;17.02;;;;;;;;;;5065228;28;24414;-52
2022/03/28 12:58:14;;;;;;;19.00;15.90;;;;;;;;;;5064234;28;24448;-52
2022/03/28 13:00:40;;;;;;;28.77;16.70;;;;;;;;;;5083272;28;24437;-52
2022/03/28 13:03:06;;;;;;;16.67;14.98;;;;;;;;;;5082660;28;24998;-51
2022/03/28 13:05:32;;;;;;;22.08;17.63;;;;;;;;;;5083095;28;24432;-51
2022/03/28 13:08:07;;;;;;;17.83;16.03;;;;;;;;;;5063927;28;24403;-51
2022/03/28 13:10:33;;;;;;;19.33;17.30;;;;;;;;;;5074449;28;24418;-53
2022/03/28 13:13:00;;;;;;;24.17;14.30;;;;;;;;;;5066167;28;24530;-52
2022/03/28 13:15:29;;;;;;;12.38;9.65;;;;;;;;;;5065107;28;24417;-52
2022/03/28 13:18:08;;;;;;;11.32;9.40;;;;;;;;;;5065606;28;24513;-52
2022/03/28 13:20:34;;;;;;;12.57;9.50;;;;;;;;;;5080791;28;24411;-52
2022/03/28 13:23:01;;;;;;;39.97;17.95;;;;;;;;;;5077387;28;24425;-53
2022/03/28 13:25:27;;;;;;;24.73;16.02;;;;;;;;;;5081580;28;24897;-52
2022/03/28 13:28:09;;;;;;;14.07;11.52;;;;;;;;;;5063987;28;24518;-52
2022/03/28 13:30:35;;;;;;;22.75;13.45;;;;;;;;;;5064003;28;25025;-52
2022/03/28 13:33:01;;;;;;;15.18;11.68;;;;;;;;;;5070155;28;24480;-52
2022/03/28 13:35:26;;;;;;;12.87;9.80;;;;;;;;;;5084785;28;24414;-52
2022/03/28 13:37:52;;;;;;;22.70;12.48;;;;;;;;;;5078721;28;24981;-52
2022/03/28 13:40:18;;;;;;;16.77;15.02;;;;;;;;;;5067401;28;24421;-53
2022/03/28 13:42:44;;;;;;;24.98;14.60;;;;;;;;;;5068894;28;24502;-52
2022/03/28 13:45:09;;;;;;;8.60;7.72;;;;;;;;;;5076483;28;24421;-53
2022/03/28 13:47:34;;;;;;;8.55;7.35;;;;;;;;;;5084414;28;24527;-53
2022/03/28 13:49:59;;;;;;;8.30;7.00;;;;;;;;;;5065792;28;25113;-52
2022/03/28 13:52:25;;;;;;;9.27;7.70;;;;;;;;;;5070436;28;24413;-53
2022/03/28 13:54:50;;;;;;;28.02;11.55;;;;;;;;;;5074385;28;24426;-52
2022/03/28 13:57:15;;;;;;;13.60;11.43;;;;;;;;;;5067440;28;24410;-52
2022/03/28 13:59:40;;;;;;;25.38;14.32;;;;;;;;;;5104900;28;24460;-52
2022/03/28 14:02:07;;;;;;;12.25;11.05;;;;;;;;;;5086680;28;24389;-52
2022/03/28 14:04:32;;;;;;;11.93;10.25;;;;;;;;;;5076183;28;24425;-52
2022/03/28 14:06:57;;;;;;;11.13;10.10;;;;;;;;;;5089461;28;24475;-52
2022/03/28 14:09:22;;;;;;;10.00;9.00;;;;;;;;;;5096593;28;24402;-53
2022/03/28 14:11:47;;;;;;;16.70;10.37;;;;;;;;;;5106523;28;24433;-52
2022/03/28 14:14:13;;;;;;;14.30;10.70;;;;;;;;;;5089583;28;24421;-52
2022/03/28 14:16:38;;;;;;;55.60;15.77;;;;;;;;;;5083754;28;24528;-53
2022/03/28 14:19:04;;;;;;;12.57;9.20;;;;;;;;;;5076202;28;24426;-52
2022/03/28 14:21:29;;;;;;;10.98;8.40;;;;;;;;;;5068921;28;24517;-52
2022/03/28 14:23:54;;;;;;;8.60;7.80;;;;;;;;;;5068018;28;24411;-52